sensor_id;sensor_type;location;lat;lon;timestamp;temperature;humidity
9723;DHT22;4900;49.306;8.500;2023-04-22T00:00:45;13.53;71.82
9723;DHT22;4900;49.306;8.500;2023-04-22T00:03:11;13.47;71.97
9723;DHT22;4900;49.306;8.500;2023-04-22T00:05:36;13.49;72.00
9723;DHT22;4900;49.306;8.500;2023-04-22T00:08:02;13.46;71.95
9723;DHT22;4900;49.306;8.500;2023-04-22T00:10:28;13.46;71.89
9723;DHT22;4900;49.306;8.500;2023-04-22T00:12:53;13.43;71.90
9723;DHT22;4900;49.306;8.500;2023-04-22T00:15:19;13.39;72.13
9723;DHT22;4900;49.306;8.500;2023-04-22T00:17:49;13.35;72.19
9723;DHT22;4900;49.306;8.500;2023-04-22T00:20:14;13.33;72.30
9723;DHT22;4900;49.306;8.500;2023-04-22T00:22:40;13.32;72.43
9723;DHT22;4900;49.306;8.500;2023-04-22T00:25:06;13.32;72.47
9723;DHT22;4900;49.306;8.500;2023-04-22T00:27:32;13.31;72.34
9723;DHT22;4900;49.306;8.500;2023-04-22T00:29:57;13.32;72.41
9723;DHT22;4900;49.306;8.500;2023-04-22T00:32:23;13.32;72.37
9723;DHT22;4900;49.306;8.500;2023-04-22T00:34:48;13.28;72.31
9723;DHT22;4900;49.306;8.500;2023-04-22T00:37:14;13.25;72.34
9723;DHT22;4900;49.306;8.500;2023-04-22T00:39:40;13.25;72.23
9723;DHT22;4900;49.306;8.500;2023-04-22T00:42:06;13.22;72.31
9723;DHT22;4900;49.306;8.500;2023-04-22T00:44:32;13.24;72.36
9723;DHT22;4900;49.306;8.500;2023-04-22T00:46:58;13.19;72.28
9723;DHT22;4900;49.306;8.500;2023-04-22T00:49:26;13.21;72.22
9723;DHT22;4900;49.306;8.500;2023-04-22T00:51:51;13.18;72.11
9723;DHT22;4900;49.306;8.500;2023-04-22T00:54:18;13.16;72.17
9723;DHT22;4900;49.306;8.500;2023-04-22T00:56:43;13.14;72.33
9723;DHT22;4900;49.306;8.500;2023-04-22T00:59:09;13.14;72.47
9723;DHT22;4900;49.306;8.500;2023-04-22T01:01:35;13.12;72.54
9723;DHT22;4900;49.306;8.500;2023-04-22T01:04:02;13.14;72.70
9723;DHT22;4900;49.306;8.500;2023-04-22T01:06:29;13.15;72.81
9723;DHT22;4900;49.306;8.500;2023-04-22T01:08:57;13.14;72.92
9723;DHT22;4900;49.306;8.500;2023-04-22T01:11:24;13.11;72.76
9723;DHT22;4900;49.306;8.500;2023-04-22T01:13:50;13.11;72.72
9723;DHT22;4900;49.306;8.500;2023-04-22T01:16:17;13.12;72.79
9723;DHT22;4900;49.306;8.500;2023-04-22T01:18:42;13.12;72.97
9723;DHT22;4900;49.306;8.500;2023-04-22T01:21:08;13.08;73.18
9723;DHT22;4900;49.306;8.500;2023-04-22T01:23:34;13.10;73.19
9723;DHT22;4900;49.306;8.500;2023-04-22T01:26:00;13.11;73.17
9723;DHT22;4900;49.306;8.500;2023-04-22T01:28:26;13.10;72.92
9723;DHT22;4900;49.306;8.500;2023-04-22T01:30:52;13.11;72.79
9723;DHT22;4900;49.306;8.500;2023-04-22T01:33:18;13.10;72.76
9723;DHT22;4900;49.306;8.500;2023-04-22T01:35:43;13.07;72.99
9723;DHT22;4900;49.306;8.500;2023-04-22T01:38:10;13.04;72.97
9723;DHT22;4900;49.306;8.500;2023-04-22T01:40:37;13.04;72.71
9723;DHT22;4900;49.306;8.500;2023-04-22T01:43:03;13.05;72.62
9723;DHT22;4900;49.306;8.500;2023-04-22T01:45:28;13.04;72.46
9723;DHT22;4900;49.306;8.500;2023-04-22T01:47:54;13.05;72.38
9723;DHT22;4900;49.306;8.500;2023-04-22T01:50:20;13.08;72.36
9723;DHT22;4900;49.306;8.500;2023-04-22T01:52:47;13.05;72.41
9723;DHT22;4900;49.306;8.500;2023-04-22T01:55:12;13.05;72.38
9723;DHT22;4900;49.306;8.500;2023-04-22T01:57:38;13.03;72.43
9723;DHT22;4900;49.306;8.500;2023-04-22T02:00:04;13.01;72.68
9723;DHT22;4900;49.306;8.500;2023-04-22T02:02:30;13.01;72.72
9723;DHT22;4900;49.306;8.500;2023-04-22T02:04:56;13.03;72.77
9723;DHT22;4900;49.306;8.500;2023-04-22T02:07:21;13.00;72.83
9723;DHT22;4900;49.306;8.500;2023-04-22T02:09:47;13.00;72.63
9723;DHT22;4900;49.306;8.500;2023-04-22T02:12:12;13.00;72.66
9723;DHT22;4900;49.306;8.500;2023-04-22T02:14:38;12.96;72.75
9723;DHT22;4900;49.306;8.500;2023-04-22T02:17:03;12.94;72.80
9723;DHT22;4900;49.306;8.500;2023-04-22T02:19:29;12.96;72.91
9723;DHT22;4900;49.306;8.500;2023-04-22T02:21:54;12.93;72.83
9723;DHT22;4900;49.306;8.500;2023-04-22T02:24:20;12.93;72.91
9723;DHT22;4900;49.306;8.500;2023-04-22T02:26:45;12.88;73.19
9723;DHT22;4900;49.306;8.500;2023-04-22T02:29:12;12.87;73.19
9723;DHT22;4900;49.306;8.500;2023-04-22T02:31:37;12.84;73.24
9723;DHT22;4900;49.306;8.500;2023-04-22T02:34:03;12.84;73.23
9723;DHT22;4900;49.306;8.500;2023-04-22T02:36:28;12.83;73.27
9723;DHT22;4900;49.306;8.500;2023-04-22T02:38:54;12.79;73.39
9723;DHT22;4900;49.306;8.500;2023-04-22T02:41:19;12.77;73.44
9723;DHT22;4900;49.306;8.500;2023-04-22T02:43:45;12.73;73.69
9723;DHT22;4900;49.306;8.500;2023-04-22T02:46:14;12.69;73.93
9723;DHT22;4900;49.306;8.500;2023-04-22T02:48:41;12.69;73.77
9723;DHT22;4900;49.306;8.500;2023-04-22T02:51:07;12.67;73.74
9723;DHT22;4900;49.306;8.500;2023-04-22T02:53:32;12.69;73.87
9723;DHT22;4900;49.306;8.500;2023-04-22T02:55:58;12.64;73.93
9723;DHT22;4900;49.306;8.500;2023-04-22T02:58:23;12.62;74.05
9723;DHT22;4900;49.306;8.500;2023-04-22T03:00:50;12.57;74.13
9723;DHT22;4900;49.306;8.500;2023-04-22T03:03:16;12.56;74.31
9723;DHT22;4900;49.306;8.500;2023-04-22T03:05:41;12.52;74.38
9723;DHT22;4900;49.306;8.500;2023-04-22T03:08:06;12.52;74.25
9723;DHT22;4900;49.306;8.500;2023-04-22T03:10:32;12.49;74.18
9723;DHT22;4900;49.306;8.500;2023-04-22T03:12:57;12.46;74.24
9723;DHT22;4900;49.306;8.500;2023-04-22T03:15:23;12.43;74.32
9723;DHT22;4900;49.306;8.500;2023-04-22T03:17:48;12.42;74.21
9723;DHT22;4900;49.306;8.500;2023-04-22T03:20:14;12.36;74.58
9723;DHT22;4900;49.306;8.500;2023-04-22T03:22:40;12.32;75.05
9723;DHT22;4900;49.306;8.500;2023-04-22T03:25:05;12.31;75.31
9723;DHT22;4900;49.306;8.500;2023-04-22T03:27:31;12.26;75.21
9723;DHT22;4900;49.306;8.500;2023-04-22T03:29:57;12.26;75.16
9723;DHT22;4900;49.306;8.500;2023-04-22T03:32:22;12.21;75.26
9723;DHT22;4900;49.306;8.500;2023-04-22T03:34:48;12.20;75.51
9723;DHT22;4900;49.306;8.500;2023-04-22T03:37:13;12.13;75.60
9723;DHT22;4900;49.306;8.500;2023-04-22T03:39:38;12.15;75.46
9723;DHT22;4900;49.306;8.500;2023-04-22T03:42:04;12.11;75.36
9723;DHT22;4900;49.306;8.500;2023-04-22T03:44:30;12.08;75.38
9723;DHT22;4900;49.306;8.500;2023-04-22T03:46:55;12.04;75.53
9723;DHT22;4900;49.306;8.500;2023-04-22T03:49:21;11.97;75.54
9723;DHT22;4900;49.306;8.500;2023-04-22T03:51:46;11.94;75.63
9723;DHT22;4900;49.306;8.500;2023-04-22T03:54:11;11.90;75.82
9723;DHT22;4900;49.306;8.500;2023-04-22T03:56:37;11.90;76.39
9723;DHT22;4900;49.306;8.500;2023-04-22T03:59:02;11.88;76.35
9723;DHT22;4900;49.306;8.500;2023-04-22T04:01:28;11.87;76.36
9723;DHT22;4900;49.306;8.500;2023-04-22T04:03:53;11.86;76.29
9723;DHT22;4900;49.306;8.500;2023-04-22T04:06:19;11.81;76.32
9723;DHT22;4900;49.306;8.500;2023-04-22T04:08:44;11.76;76.86
9723;DHT22;4900;49.306;8.500;2023-04-22T04:11:10;11.74;77.13
9723;DHT22;4900;49.306;8.500;2023-04-22T04:13:36;11.76;77.36
9723;DHT22;4900;49.306;8.500;2023-04-22T04:16:01;11.73;77.22
9723;DHT22;4900;49.306;8.500;2023-04-22T04:18:28;11.71;77.09
9723;DHT22;4900;49.306;8.500;2023-04-22T04:20:54;11.73;77.01
9723;DHT22;4900;49.306;8.500;2023-04-22T04:23:19;11.69;76.89
9723;DHT22;4900;49.306;8.500;2023-04-22T04:25:44;11.66;76.79
9723;DHT22;4900;49.306;8.500;2023-04-22T04:28:10;11.65;77.00
9723;DHT22;4900;49.306;8.500;2023-04-22T04:30:36;11.62;77.02
9723;DHT22;4900;49.306;8.500;2023-04-22T04:33:02;11.65;76.99
9723;DHT22;4900;49.306;8.500;2023-04-22T04:35:40;11.62;77.09
9723;DHT22;4900;49.306;8.500;2023-04-22T04:38:07;11.63;77.11
9723;DHT22;4900;49.306;8.500;2023-04-22T04:40:33;11.63;77.09
9723;DHT22;4900;49.306;8.500;2023-04-22T04:42:59;11.63;77.26
9723;DHT22;4900;49.306;8.500;2023-04-22T04:45:27;11.65;77.24
9723;DHT22;4900;49.306;8.500;2023-04-22T04:47:53;11.69;77.23
9723;DHT22;4900;49.306;8.500;2023-04-22T04:50:19;11.67;77.41
9723;DHT22;4900;49.306;8.500;2023-04-22T04:52:46;11.74;77.57
9723;DHT22;4900;49.306;8.500;2023-04-22T04:55:13;11.77;77.54
9723;DHT22;4900;49.306;8.500;2023-04-22T04:57:38;11.81;77.63
9723;DHT22;4900;49.306;8.500;2023-04-22T05:00:04;11.90;77.58
9723;DHT22;4900;49.306;8.500;2023-04-22T05:02:30;11.98;77.42
9723;DHT22;4900;49.306;8.500;2023-04-22T05:04:56;12.02;77.29
9723;DHT22;4900;49.306;8.500;2023-04-22T05:07:21;12.13;77.13
9723;DHT22;4900;49.306;8.500;2023-04-22T05:09:46;12.18;76.90
9723;DHT22;4900;49.306;8.500;2023-04-22T05:12:12;12.26;76.74
9723;DHT22;4900;49.306;8.500;2023-04-22T05:14:37;12.32;76.57
9723;DHT22;4900;49.306;8.500;2023-04-22T05:17:03;12.41;76.37
9723;DHT22;4900;49.306;8.500;2023-04-22T05:19:28;12.45;76.08
9723;DHT22;4900;49.306;8.500;2023-04-22T05:21:54;12.55;75.79
9723;DHT22;4900;49.306;8.500;2023-04-22T05:24:19;12.62;75.55
9723;DHT22;4900;49.306;8.500;2023-04-22T05:26:45;12.63;75.28
9723;DHT22;4900;49.306;8.500;2023-04-22T05:29:11;12.66;75.01
9723;DHT22;4900;49.306;8.500;2023-04-22T05:31:36;12.63;74.88
9723;DHT22;4900;49.306;8.500;2023-04-22T05:34:01;12.64;74.72
9723;DHT22;4900;49.306;8.500;2023-04-22T05:36:27;12.63;74.60
9723;DHT22;4900;49.306;8.500;2023-04-22T05:38:52;12.57;74.50
9723;DHT22;4900;49.306;8.500;2023-04-22T05:41:18;12.50;74.60
9723;DHT22;4900;49.306;8.500;2023-04-22T05:43:43;12.52;74.59
9723;DHT22;4900;49.306;8.500;2023-04-22T05:46:08;12.49;74.56
9723;DHT22;4900;49.306;8.500;2023-04-22T05:48:34;12.46;74.47
9723;DHT22;4900;49.306;8.500;2023-04-22T05:51:00;12.48;74.46
9723;DHT22;4900;49.306;8.500;2023-04-22T05:53:25;12.49;74.49
9723;DHT22;4900;49.306;8.500;2023-04-22T05:55:50;12.50;74.52
9723;DHT22;4900;49.306;8.500;2023-04-22T05:58:16;12.55;74.55
9723;DHT22;4900;49.306;8.500;2023-04-22T06:00:41;12.60;74.57
9723;DHT22;4900;49.306;8.500;2023-04-22T06:03:07;12.69;74.53
9723;DHT22;4900;49.306;8.500;2023-04-22T06:05:32;12.74;74.49
9723;DHT22;4900;49.306;8.500;2023-04-22T06:07:58;12.76;74.63
9723;DHT22;4900;49.306;8.500;2023-04-22T06:10:23;12.84;74.85
9723;DHT22;4900;49.306;8.500;2023-04-22T06:12:49;12.91;74.93
9723;DHT22;4900;49.306;8.500;2023-04-22T06:15:14;13.12;74.59
9723;DHT22;4900;49.306;8.500;2023-04-22T06:17:39;13.22;74.47
9723;DHT22;4900;49.306;8.500;2023-04-22T06:20:06;13.44;74.21
9723;DHT22;4900;49.306;8.500;2023-04-22T06:22:31;13.70;73.59
9723;DHT22;4900;49.306;8.500;2023-04-22T06:24:57;14.01;73.02
9723;DHT22;4900;49.306;8.500;2023-04-22T06:27:22;14.33;72.12
9723;DHT22;4900;49.306;8.500;2023-04-22T06:29:48;14.66;71.12
9723;DHT22;4900;49.306;8.500;2023-04-22T06:32:13;15.04;69.99
9723;DHT22;4900;49.306;8.500;2023-04-22T06:34:38;15.18;69.35
9723;DHT22;4900;49.306;8.500;2023-04-22T06:37:04;15.25;68.96
9723;DHT22;4900;49.306;8.500;2023-04-22T06:39:30;15.32;68.75
9723;DHT22;4900;49.306;8.500;2023-04-22T06:41:55;15.54;68.36
9723;DHT22;4900;49.306;8.500;2023-04-22T06:44:21;15.96;67.45
9723;DHT22;4900;49.306;8.500;2023-04-22T06:46:47;16.60;66.26
9723;DHT22;4900;49.306;8.500;2023-04-22T06:49:12;17.01;64.97
9723;DHT22;4900;49.306;8.500;2023-04-22T06:51:37;17.39;63.93
9723;DHT22;4900;49.306;8.500;2023-04-22T06:54:03;17.74;62.84
9723;DHT22;4900;49.306;8.500;2023-04-22T06:56:28;17.94;62.08
9723;DHT22;4900;49.306;8.500;2023-04-22T06:58:54;18.06;61.75
9723;DHT22;4900;49.306;8.500;2023-04-22T07:01:19;18.24;61.19
9723;DHT22;4900;49.306;8.500;2023-04-22T07:03:45;18.30;60.85
9723;DHT22;4900;49.306;8.500;2023-04-22T07:06:11;18.57;60.38
9723;DHT22;4900;49.306;8.500;2023-04-22T07:08:36;18.88;59.64
9723;DHT22;4900;49.306;8.500;2023-04-22T07:11:02;19.37;58.48
9723;DHT22;4900;49.306;8.500;2023-04-22T07:13:27;19.78;57.20
9723;DHT22;4900;49.306;8.500;2023-04-22T07:15:53;20.10;55.97
9723;DHT22;4900;49.306;8.500;2023-04-22T07:18:18;20.33;55.03
9723;DHT22;4900;49.306;8.500;2023-04-22T07:20:44;20.54;54.74
9723;DHT22;4900;49.306;8.500;2023-04-22T07:23:10;20.79;54.12
9723;DHT22;4900;49.306;8.500;2023-04-22T07:25:35;21.09;53.65
9723;DHT22;4900;49.306;8.500;2023-04-22T07:28:01;21.37;53.23
9723;DHT22;4900;49.306;8.500;2023-04-22T07:30:26;21.24;52.39
9723;DHT22;4900;49.306;8.500;2023-04-22T07:32:52;21.19;52.31
9723;DHT22;4900;49.306;8.500;2023-04-22T07:35:17;21.13;52.09
9723;DHT22;4900;49.306;8.500;2023-04-22T07:37:43;21.21;51.98
9723;DHT22;4900;49.306;8.500;2023-04-22T07:40:09;21.17;51.57
9723;DHT22;4900;49.306;8.500;2023-04-22T07:42:38;21.07;51.60
9723;DHT22;4900;49.306;8.500;2023-04-22T07:45:05;20.96;51.78
9723;DHT22;4900;49.306;8.500;2023-04-22T07:47:30;21.07;51.55
9723;DHT22;4900;49.306;8.500;2023-04-22T07:49:56;21.34;51.44
9723;DHT22;4900;49.306;8.500;2023-04-22T07:52:21;21.40;51.42
9723;DHT22;4900;49.306;8.500;2023-04-22T07:54:47;21.81;50.74
9723;DHT22;4900;49.306;8.500;2023-04-22T07:57:12;22.30;49.76
9723;DHT22;4900;49.306;8.500;2023-04-22T07:59:38;22.00;49.47
9723;DHT22;4900;49.306;8.500;2023-04-22T08:02:03;22.10;49.07
9723;DHT22;4900;49.306;8.500;2023-04-22T08:04:29;22.64;48.68
9723;DHT22;4900;49.306;8.500;2023-04-22T08:06:54;23.16;48.00
9723;DHT22;4900;49.306;8.500;2023-04-22T08:09:20;23.20;47.19
9723;DHT22;4900;49.306;8.500;2023-04-22T08:11:45;23.54;46.99
9723;DHT22;4900;49.306;8.500;2023-04-22T08:14:11;23.22;46.53
9723;DHT22;4900;49.306;8.500;2023-04-22T08:16:40;23.55;46.09
9723;DHT22;4900;49.306;8.500;2023-04-22T08:19:06;24.06;45.05
9723;DHT22;4900;49.306;8.500;2023-04-22T08:21:31;24.64;44.73
9723;DHT22;4900;49.306;8.500;2023-04-22T08:23:57;25.28;43.64
9723;DHT22;4900;49.306;8.500;2023-04-22T08:26:22;25.78;43.12
9723;DHT22;4900;49.306;8.500;2023-04-22T08:28:48;26.16;42.20
9723;DHT22;4900;49.306;8.500;2023-04-22T08:31:13;26.92;41.37
9723;DHT22;4900;49.306;8.500;2023-04-22T08:33:39;26.81;40.62
9723;DHT22;4900;49.306;8.500;2023-04-22T08:36:06;27.30;40.24
9723;DHT22;4900;49.306;8.500;2023-04-22T08:38:32;27.62;39.65
9723;DHT22;4900;49.306;8.500;2023-04-22T08:40:58;27.90;38.94
9723;DHT22;4900;49.306;8.500;2023-04-22T08:43:24;27.81;37.92
9723;DHT22;4900;49.306;8.500;2023-04-22T08:45:51;28.24;38.07
9723;DHT22;4900;49.306;8.500;2023-04-22T08:48:18;28.71;37.52
9723;DHT22;4900;49.306;8.500;2023-04-22T08:50:43;28.48;36.87
9723;DHT22;4900;49.306;8.500;2023-04-22T08:53:10;28.65;37.24
9723;DHT22;4900;49.306;8.500;2023-04-22T08:55:36;28.64;36.69
9723;DHT22;4900;49.306;8.500;2023-04-22T08:58:03;28.47;37.30
9723;DHT22;4900;49.306;8.500;2023-04-22T09:00:30;28.44;37.45
9723;DHT22;4900;49.306;8.500;2023-04-22T09:03:00;28.20;37.43
9723;DHT22;4900;49.306;8.500;2023-04-22T09:05:27;28.03;37.53
9723;DHT22;4900;49.306;8.500;2023-04-22T09:07:54;28.05;37.53
9723;DHT22;4900;49.306;8.500;2023-04-22T09:10:19;27.23;37.95
9723;DHT22;4900;49.306;8.500;2023-04-22T09:12:45;27.47;38.17
9723;DHT22;4900;49.306;8.500;2023-04-22T09:15:12;27.62;38.00
9723;DHT22;4900;49.306;8.500;2023-04-22T09:17:38;27.69;37.90
9723;DHT22;4900;49.306;8.500;2023-04-22T09:20:05;27.81;37.87
9723;DHT22;4900;49.306;8.500;2023-04-22T09:22:42;28.31;37.54
9723;DHT22;4900;49.306;8.500;2023-04-22T09:25:25;28.74;36.96
9723;DHT22;4900;49.306;8.500;2023-04-22T09:27:56;28.98;36.43
9723;DHT22;4900;49.306;8.500;2023-04-22T09:30:32;28.88;35.59
9723;DHT22;4900;49.306;8.500;2023-04-22T09:33:00;28.45;36.13
9723;DHT22;4900;49.306;8.500;2023-04-22T09:35:34;28.20;36.32
9723;DHT22;4900;49.306;8.500;2023-04-22T09:38:02;28.58;36.28
9723;DHT22;4900;49.306;8.500;2023-04-22T09:40:30;28.98;36.08
9723;DHT22;4900;49.306;8.500;2023-04-22T09:43:00;29.81;35.60
9723;DHT22;4900;49.306;8.500;2023-04-22T09:45:28;30.00;35.22
9723;DHT22;4900;49.306;8.500;2023-04-22T09:47:55;30.12;34.05
9723;DHT22;4900;49.306;8.500;2023-04-22T09:50:24;30.20;34.22
9723;DHT22;4900;49.306;8.500;2023-04-22T09:53:01;31.03;33.40
9723;DHT22;4900;49.306;8.500;2023-04-22T09:55:28;30.86;32.38
9723;DHT22;4900;49.306;8.500;2023-04-22T09:57:56;31.07;31.48
9723;DHT22;4900;49.306;8.500;2023-04-22T10:00:24;31.71;31.59
9723;DHT22;4900;49.306;8.500;2023-04-22T10:02:50;32.16;31.71
9723;DHT22;4900;49.306;8.500;2023-04-22T10:05:18;32.82;31.33
9723;DHT22;4900;49.306;8.500;2023-04-22T10:07:45;33.16;30.24
9723;DHT22;4900;49.306;8.500;2023-04-22T10:10:10;32.89;30.61
9723;DHT22;4900;49.306;8.500;2023-04-22T10:12:36;32.65;30.57
9723;DHT22;4900;49.306;8.500;2023-04-22T10:15:06;32.03;30.72
9723;DHT22;4900;49.306;8.500;2023-04-22T10:17:34;31.29;31.03
9723;DHT22;4900;49.306;8.500;2023-04-22T10:20:03;31.31;31.38
9723;DHT22;4900;49.306;8.500;2023-04-22T10:22:33;31.62;30.77
9723;DHT22;4900;49.306;8.500;2023-04-22T10:24:59;31.29;31.07
9723;DHT22;4900;49.306;8.500;2023-04-22T10:27:24;30.82;31.19
9723;DHT22;4900;49.306;8.500;2023-04-22T10:29:50;31.54;30.56
9723;DHT22;4900;49.306;8.500;2023-04-22T10:34:47;32.53;30.50
9723;DHT22;4900;49.306;8.500;2023-04-22T10:37:17;32.19;29.41
9723;DHT22;4900;49.306;8.500;2023-04-22T10:42:32;31.31;29.68
9723;DHT22;4900;49.306;8.500;2023-04-22T10:45:02;31.58;30.50
9723;DHT22;4900;49.306;8.500;2023-04-22T10:47:34;31.67;30.47
9723;DHT22;4900;49.306;8.500;2023-04-22T10:52:42;31.19;30.06
9723;DHT22;4900;49.306;8.500;2023-04-22T10:55:08;31.45;30.17
9723;DHT22;4900;49.306;8.500;2023-04-22T10:57:41;31.65;30.03
9723;DHT22;4900;49.306;8.500;2023-04-22T11:00:26;31.22;29.23
9723;DHT22;4900;49.306;8.500;2023-04-22T11:05:32;30.65;29.38
9723;DHT22;4900;49.306;8.500;2023-04-22T11:08:17;31.24;29.38
9723;DHT22;4900;49.306;8.500;2023-04-22T11:10:47;30.71;29.48
9723;DHT22;4900;49.306;8.500;2023-04-22T11:13:15;31.22;29.58
9723;DHT22;4900;49.306;8.500;2023-04-22T11:15:44;31.19;30.50
9723;DHT22;4900;49.306;8.500;2023-04-22T11:18:15;31.68;29.38
9723;DHT22;4900;49.306;8.500;2023-04-22T11:20:42;31.77;28.84
9723;DHT22;4900;49.306;8.500;2023-04-22T11:23:08;31.77;28.87
9723;DHT22;4900;49.306;8.500;2023-04-22T11:25:34;32.06;28.57
9723;DHT22;4900;49.306;8.500;2023-04-22T11:28:00;32.43;28.41
9723;DHT22;4900;49.306;8.500;2023-04-22T11:30:26;32.72;28.20
9723;DHT22;4900;49.306;8.500;2023-04-22T11:32:54;32.98;28.12
9723;DHT22;4900;49.306;8.500;2023-04-22T11:35:32;32.49;28.17
9723;DHT22;4900;49.306;8.500;2023-04-22T11:38:05;32.45;27.95
9723;DHT22;4900;49.306;8.500;2023-04-22T11:40:33;32.03;28.09
9723;DHT22;4900;49.306;8.500;2023-04-22T11:43:00;31.55;27.82
9723;DHT22;4900;49.306;8.500;2023-04-22T11:45:28;32.34;27.23
9723;DHT22;4900;49.306;8.500;2023-04-22T11:47:54;32.54;26.89
9723;DHT22;4900;49.306;8.500;2023-04-22T11:50:26;32.74;27.02
9723;DHT22;4900;49.306;8.500;2023-04-22T11:55:32;32.84;27.11
9723;DHT22;4900;49.306;8.500;2023-04-22T11:58:12;33.13;26.76
9723;DHT22;4900;49.306;8.500;2023-04-22T12:00:50;33.19;25.71
9723;DHT22;4900;49.306;8.500;2023-04-22T12:03:18;33.27;25.08
9723;DHT22;4900;49.306;8.500;2023-04-22T12:06:03;32.68;25.11
9723;DHT22;4900;49.306;8.500;2023-04-22T12:08:38;32.12;25.52
9723;DHT22;4900;49.306;8.500;2023-04-22T12:11:07;32.05;25.56
9723;DHT22;4900;49.306;8.500;2023-04-22T12:13:43;31.16;26.25
9723;DHT22;4900;49.306;8.500;2023-04-22T12:16:11;30.81;26.84
9723;DHT22;4900;49.306;8.500;2023-04-22T12:18:46;30.71;27.42
9723;DHT22;4900;49.306;8.500;2023-04-22T12:21:13;30.02;28.34
9723;DHT22;4900;49.306;8.500;2023-04-22T12:23:50;29.66;28.65
9723;DHT22;4900;49.306;8.500;2023-04-22T12:26:20;29.59;28.98
9723;DHT22;4900;49.306;8.500;2023-04-22T12:28:46;29.71;29.12
9723;DHT22;4900;49.306;8.500;2023-04-22T12:31:13;29.58;29.34
9723;DHT22;4900;49.306;8.500;2023-04-22T12:33:39;29.81;29.64
9723;DHT22;4900;49.306;8.500;2023-04-22T12:36:05;29.79;29.69
9723;DHT22;4900;49.306;8.500;2023-04-22T12:38:31;29.40;30.07
9723;DHT22;4900;49.306;8.500;2023-04-22T12:40:58;29.59;30.04
9723;DHT22;4900;49.306;8.500;2023-04-22T12:43:24;29.50;30.20
9723;DHT22;4900;49.306;8.500;2023-04-22T12:45:49;29.31;30.41
9723;DHT22;4900;49.306;8.500;2023-04-22T12:48:15;29.09;30.64
9723;DHT22;4900;49.306;8.500;2023-04-22T12:50:40;28.75;30.85
9723;DHT22;4900;49.306;8.500;2023-04-22T12:53:06;28.55;31.14
9723;DHT22;4900;49.306;8.500;2023-04-22T12:55:32;28.14;31.49
9723;DHT22;4900;49.306;8.500;2023-04-22T12:57:57;27.69;32.43
9723;DHT22;4900;49.306;8.500;2023-04-22T13:00:23;27.40;32.89
9723;DHT22;4900;49.306;8.500;2023-04-22T13:02:49;26.89;33.43
9723;DHT22;4900;49.306;8.500;2023-04-22T13:05:16;26.67;33.39
9723;DHT22;4900;49.306;8.500;2023-04-22T13:07:42;26.36;33.52
9723;DHT22;4900;49.306;8.500;2023-04-22T13:10:13;25.99;33.41
9723;DHT22;4900;49.306;8.500;2023-04-22T13:12:40;25.95;33.49
9723;DHT22;4900;49.306;8.500;2023-04-22T13:15:06;25.84;33.45
9723;DHT22;4900;49.306;8.500;2023-04-22T13:17:33;25.68;33.88
9723;DHT22;4900;49.306;8.500;2023-04-22T13:19:59;25.57;33.96
9723;DHT22;4900;49.306;8.500;2023-04-22T13:22:25;25.47;34.10
9723;DHT22;4900;49.306;8.500;2023-04-22T13:24:50;25.44;34.33
9723;DHT22;4900;49.306;8.500;2023-04-22T13:27:16;25.26;34.63
9723;DHT22;4900;49.306;8.500;2023-04-22T13:29:42;25.05;34.97
9723;DHT22;4900;49.306;8.500;2023-04-22T13:32:07;25.09;35.05
9723;DHT22;4900;49.306;8.500;2023-04-22T13:34:33;25.03;35.15
9723;DHT22;4900;49.306;8.500;2023-04-22T13:36:59;24.92;35.52
9723;DHT22;4900;49.306;8.500;2023-04-22T13:39:25;24.79;35.72
9723;DHT22;4900;49.306;8.500;2023-04-22T13:41:52;24.83;35.71
9723;DHT22;4900;49.306;8.500;2023-04-22T13:44:18;24.99;35.49
9723;DHT22;4900;49.306;8.500;2023-04-22T13:46:43;25.23;35.31
9723;DHT22;4900;49.306;8.500;2023-04-22T13:49:09;25.20;35.44
9723;DHT22;4900;49.306;8.500;2023-04-22T13:51:35;24.96;35.67
9723;DHT22;4900;49.306;8.500;2023-04-22T13:54:04;25.06;35.20
9723;DHT22;4900;49.306;8.500;2023-04-22T13:56:31;24.79;35.24
9723;DHT22;4900;49.306;8.500;2023-04-22T13:58:56;24.69;35.01
9723;DHT22;4900;49.306;8.500;2023-04-22T14:01:22;24.64;34.90
9723;DHT22;4900;49.306;8.500;2023-04-22T14:03:48;24.47;35.09
9723;DHT22;4900;49.306;8.500;2023-04-22T14:06:14;24.47;35.24
9723;DHT22;4900;49.306;8.500;2023-04-22T14:08:40;24.54;35.38
9723;DHT22;4900;49.306;8.500;2023-04-22T14:11:06;24.65;35.45
9723;DHT22;4900;49.306;8.500;2023-04-22T14:13:33;24.58;35.35
9723;DHT22;4900;49.306;8.500;2023-04-22T14:15:58;24.52;35.27
9723;DHT22;4900;49.306;8.500;2023-04-22T14:18:24;24.67;35.45
9723;DHT22;4900;49.306;8.500;2023-04-22T14:20:51;24.61;35.25
9723;DHT22;4900;49.306;8.500;2023-04-22T14:23:17;24.75;35.17
9723;DHT22;4900;49.306;8.500;2023-04-22T14:25:44;24.92;35.20
9723;DHT22;4900;49.306;8.500;2023-04-22T14:28:11;24.96;34.92
9723;DHT22;4900;49.306;8.500;2023-04-22T14:30:37;25.33;35.01
9723;DHT22;4900;49.306;8.500;2023-04-22T14:33:02;25.75;34.78
9723;DHT22;4900;49.306;8.500;2023-04-22T14:35:35;26.03;34.34
9723;DHT22;4900;49.306;8.500;2023-04-22T14:38:02;26.26;34.21
9723;DHT22;4900;49.306;8.500;2023-04-22T14:40:29;26.57;33.54
9723;DHT22;4900;49.306;8.500;2023-04-22T14:42:57;26.88;33.08
9723;DHT22;4900;49.306;8.500;2023-04-22T14:45:24;27.14;32.71
9723;DHT22;4900;49.306;8.500;2023-04-22T14:47:50;27.48;32.70
9723;DHT22;4900;49.306;8.500;2023-04-22T14:50:15;27.41;31.91
9723;DHT22;4900;49.306;8.500;2023-04-22T14:52:41;27.43;31.61
9723;DHT22;4900;49.306;8.500;2023-04-22T14:55:06;27.31;31.64
9723;DHT22;4900;49.306;8.500;2023-04-22T14:57:32;27.34;31.83
9723;DHT22;4900;49.306;8.500;2023-04-22T14:59:57;27.23;31.78
9723;DHT22;4900;49.306;8.500;2023-04-22T15:02:23;27.27;32.26
9723;DHT22;4900;49.306;8.500;2023-04-22T15:04:48;27.38;32.60
9723;DHT22;4900;49.306;8.500;2023-04-22T15:07:14;27.38;32.36
9723;DHT22;4900;49.306;8.500;2023-04-22T15:09:40;27.53;31.86
9723;DHT22;4900;49.306;8.500;2023-04-22T15:12:06;27.65;32.13
9723;DHT22;4900;49.306;8.500;2023-04-22T15:14:32;27.82;32.20
9723;DHT22;4900;49.306;8.500;2023-04-22T15:17:02;28.10;32.18
9723;DHT22;4900;49.306;8.500;2023-04-22T15:19:27;28.33;31.22
9723;DHT22;4900;49.306;8.500;2023-04-22T15:21:53;28.36;30.94
9723;DHT22;4900;49.306;8.500;2023-04-22T15:24:18;28.64;31.09
9723;DHT22;4900;49.306;8.500;2023-04-22T15:26:45;29.02;31.18
9723;DHT22;4900;49.306;8.500;2023-04-22T15:29:11;29.27;30.41
9723;DHT22;4900;49.306;8.500;2023-04-22T15:31:36;29.17;29.80
9723;DHT22;4900;49.306;8.500;2023-04-22T15:34:01;29.22;30.12
9723;DHT22;4900;49.306;8.500;2023-04-22T15:36:28;29.23;30.41
9723;DHT22;4900;49.306;8.500;2023-04-22T15:38:54;29.17;30.20
9723;DHT22;4900;49.306;8.500;2023-04-22T15:41:23;28.99;30.22
9723;DHT22;4900;49.306;8.500;2023-04-22T15:43:49;28.65;30.66
9723;DHT22;4900;49.306;8.500;2023-04-22T15:46:18;28.36;30.98
9723;DHT22;4900;49.306;8.500;2023-04-22T15:48:43;28.13;30.86
9723;DHT22;4900;49.306;8.500;2023-04-22T15:51:16;27.86;31.45
9723;DHT22;4900;49.306;8.500;2023-04-22T15:53:43;27.64;31.59
9723;DHT22;4900;49.306;8.500;2023-04-22T15:56:12;27.24;32.23
9723;DHT22;4900;49.306;8.500;2023-04-22T15:58:38;26.92;33.00
9723;DHT22;4900;49.306;8.500;2023-04-22T16:01:04;26.79;32.92
9723;DHT22;4900;49.306;8.500;2023-04-22T16:03:29;26.47;33.61
9723;DHT22;4900;49.306;8.500;2023-04-22T16:05:55;26.23;33.95
9723;DHT22;4900;49.306;8.500;2023-04-22T16:08:21;26.05;34.23
9723;DHT22;4900;49.306;8.500;2023-04-22T16:10:47;25.85;34.39